createdAt,value
2019-03-13T00:00:57.854Z,0.20
2019-03-13T00:03:25.696Z,0.20
2019-03-13T00:05:53.441Z,0.30
2019-03-13T00:08:21.180Z,0.40
2019-03-13T00:10:48.790Z,0.40
2019-03-13T00:13:16.608Z,0.40
2019-03-13T00:15:44.477Z,0.50
2019-03-13T00:18:12.181Z,0.50
2019-03-13T00:20:39.686Z,0.50
2019-03-13T00:23:07.367Z,0.40
2019-03-13T00:25:35.004Z,0.40
2019-03-13T00:28:02.860Z,0.40
2019-03-13T00:30:30.661Z,0.40
2019-03-13T00:32:58.375Z,0.40
2019-03-13T00:35:26.014Z,0.40
2019-03-13T00:37:53.466Z,0.40
2019-03-13T00:40:21.347Z,0.40
2019-03-13T00:42:48.770Z,0.40
2019-03-13T00:45:16.308Z,0.40
2019-03-13T00:47:43.829Z,0.40
2019-03-13T00:50:24.985Z,0.40
2019-03-13T00:52:52.496Z,0.40
2019-03-13T00:55:21.668Z,0.30
2019-03-13T00:57:49.290Z,0.30
2019-03-13T01:00:31.605Z,0.30
2019-03-13T01:02:59.170Z,0.30
2019-03-13T01:05:32.887Z,0.30
2019-03-13T01:08:00.601Z,0.30
2019-03-13T01:10:28.612Z,0.20
2019-03-13T01:12:56.085Z,0.20
2019-03-13T01:15:23.724Z,0.20
2019-03-13T01:17:51.303Z,0.20
2019-03-13T01:20:18.922Z,0.20
2019-03-13T01:22:47.101Z,0.20
2019-03-13T01:25:15.726Z,0.20
2019-03-13T01:27:44.052Z,0.20
2019-03-13T01:30:12.115Z,0.20
2019-03-13T01:32:50.707Z,0.20
2019-03-13T01:35:24.796Z,0.20
2019-03-13T01:37:52.763Z,0.20
2019-03-13T01:40:20.472Z,0.20
2019-03-13T01:42:48.063Z,0.20
2019-03-13T01:45:15.666Z,0.10
2019-03-13T01:47:43.366Z,0.10
2019-03-13T01:50:11.202Z,0.00
2019-03-13T01:52:38.783Z,0.00
2019-03-13T01:55:06.580Z,0.00
2019-03-13T01:57:35.478Z,-0.10
2019-03-13T02:00:04.042Z,-0.10
2019-03-13T02:02:31.693Z,-0.10
2019-03-13T02:04:59.445Z,-0.30
2019-03-13T02:07:27.096Z,-0.20
2019-03-13T02:09:54.769Z,-0.20
2019-03-13T02:12:22.385Z,-0.20
2019-03-13T02:14:50.097Z,-0.20
2019-03-13T02:17:19.346Z,-0.30
2019-03-13T02:19:49.740Z,-0.30
2019-03-13T02:22:17.697Z,-0.20
2019-03-13T02:24:45.566Z,-0.20
2019-03-13T02:27:12.917Z,-0.20
2019-03-13T02:29:40.469Z,-0.20
2019-03-13T02:32:07.894Z,-0.20
2019-03-13T02:34:35.615Z,-0.20
2019-03-13T02:37:03.407Z,-0.30
2019-03-13T02:39:32.036Z,-0.30
2019-03-13T02:41:59.457Z,-0.30
2019-03-13T02:44:27.007Z,-0.30
2019-03-13T02:46:56.733Z,-0.30
2019-03-13T02:49:24.192Z,-0.30
2019-03-13T02:51:51.961Z,-0.30
2019-03-13T02:54:19.645Z,-0.40
2019-03-13T02:56:47.176Z,-0.20
2019-03-13T02:59:19.772Z,-0.20
2019-03-13T03:02:07.017Z,-0.10
2019-03-13T03:04:34.809Z,-0.10
2019-03-13T03:07:03.765Z,-0.20
2019-03-13T03:09:31.534Z,-0.10
2019-03-13T03:11:59.131Z,-0.10
2019-03-13T03:14:26.582Z,0.00
2019-03-13T03:16:54.063Z,-0.10
2019-03-13T03:19:21.585Z,0.00
2019-03-13T03:21:49.191Z,0.00
2019-03-13T03:24:17.638Z,0.20
2019-03-13T03:26:45.935Z,0.40
2019-03-13T03:29:13.605Z,0.50
2019-03-13T03:31:41.158Z,0.60
2019-03-13T03:34:09.165Z,0.70
2019-03-13T03:36:37.290Z,0.70
2019-03-13T03:39:06.941Z,0.80
2019-03-13T03:41:36.722Z,0.90
2019-03-13T03:44:04.409Z,1.00
2019-03-13T03:46:32.139Z,1.00
2019-03-13T03:49:00.733Z,1.00
2019-03-13T03:51:28.105Z,1.10
2019-03-13T03:53:55.771Z,1.10
2019-03-13T03:56:23.257Z,1.30
2019-03-13T03:58:50.853Z,1.30
2019-03-13T04:01:18.317Z,1.40
2019-03-13T04:03:45.933Z,1.50
2019-03-13T04:06:13.733Z,1.60
2019-03-13T04:08:41.453Z,1.70
2019-03-13T04:11:10.293Z,1.70
2019-03-13T04:13:37.820Z,1.80
2019-03-13T04:16:05.394Z,1.70
2019-03-13T04:18:32.959Z,1.70
2019-03-13T04:21:00.597Z,1.70
2019-03-13T04:23:27.969Z,1.70
2019-03-13T04:25:55.725Z,1.70
2019-03-13T04:28:23.226Z,1.70
2019-03-13T04:30:51.654Z,1.70
2019-03-13T04:33:19.257Z,1.70
2019-03-13T04:35:47.069Z,1.80
2019-03-13T04:38:14.702Z,1.90
2019-03-13T04:40:42.083Z,1.90
2019-03-13T04:43:09.449Z,2.00
2019-03-13T04:45:36.974Z,2.00
2019-03-13T04:48:04.598Z,2.20
2019-03-13T04:50:32.220Z,2.30
2019-03-13T04:52:59.613Z,2.40
2019-03-13T04:55:27.099Z,2.50
2019-03-13T04:57:54.729Z,2.50
2019-03-13T05:00:22.389Z,2.60
2019-03-13T05:02:50.082Z,2.70
2019-03-13T05:05:55.076Z,2.70
2019-03-13T05:08:45.101Z,2.70
2019-03-13T05:11:08.735Z,2.80
2019-03-13T05:13:36.413Z,2.80
2019-03-13T05:16:04.075Z,2.90
2019-03-13T05:18:31.638Z,2.80
2019-03-13T05:20:59.183Z,2.80
2019-03-13T05:23:26.634Z,2.90
2019-03-13T05:25:54.175Z,2.90
2019-03-13T05:28:21.811Z,3.00
2019-03-13T05:30:49.307Z,3.00
2019-03-13T05:33:16.833Z,3.10
2019-03-13T05:35:44.642Z,3.20
2019-03-13T05:38:12.270Z,3.30
2019-03-13T05:40:39.743Z,3.40
2019-03-13T05:43:07.153Z,3.60
2019-03-13T05:45:36.625Z,3.70
2019-03-13T05:48:04.340Z,3.80
2019-03-13T05:50:31.819Z,3.90
2019-03-13T05:52:59.586Z,4.10
2019-03-13T05:55:27.078Z,4.20
2019-03-13T05:57:54.501Z,4.30
2019-03-13T06:00:23.465Z,4.40
2019-03-13T06:02:51.132Z,4.60
2019-03-13T06:05:18.697Z,4.70
2019-03-13T06:07:46.353Z,4.80
2019-03-13T06:10:14.238Z,4.90
2019-03-13T06:12:41.829Z,5.00
2019-03-13T06:15:11.224Z,5.10
2019-03-13T06:17:38.812Z,5.30
2019-03-13T06:20:10.248Z,5.40
2019-03-13T06:22:37.102Z,5.40
2019-03-13T06:25:05.571Z,5.60
2019-03-13T06:27:33.193Z,5.70
2019-03-13T06:30:03.250Z,5.80
2019-03-13T06:32:33.426Z,5.80
2019-03-13T06:35:01.819Z,5.90
2019-03-13T06:37:29.687Z,6.00
2019-03-13T06:39:59.989Z,6.00
2019-03-13T06:42:28.784Z,6.10
2019-03-13T06:44:56.231Z,6.10
2019-03-13T06:47:25.032Z,6.20
2019-03-13T06:49:52.775Z,6.30
2019-03-13T06:52:20.323Z,6.30
2019-03-13T06:54:47.895Z,6.40
2019-03-13T06:57:15.207Z,6.50
2019-03-13T07:00:01.082Z,6.60
2019-03-13T07:02:44.842Z,6.80
2019-03-13T07:05:20.890Z,6.90
2019-03-13T07:08:06.218Z,7.00
2019-03-13T07:10:39.196Z,7.20
2019-03-13T07:13:13.876Z,7.50
2019-03-13T07:15:51.317Z,7.50
2019-03-13T07:18:28.092Z,7.60
2019-03-13T07:21:06.642Z,7.70
2019-03-13T07:23:55.299Z,7.80
2019-03-13T07:26:35.619Z,7.80
2019-03-13T07:29:21.388Z,7.90
2019-03-13T07:31:54.259Z,7.80
2019-03-13T07:34:51.616Z,7.90
2019-03-13T07:37:37.199Z,7.90
2019-03-13T07:40:25.330Z,8.00
2019-03-13T07:43:01.999Z,8.00
2019-03-13T07:46:08.152Z,8.10
2019-03-13T07:48:48.449Z,8.00
2019-03-13T07:51:23.011Z,8.20
2019-03-13T07:54:19.058Z,8.30
2019-03-13T07:57:11.957Z,8.50
2019-03-13T08:00:14.216Z,8.70
2019-03-13T08:02:48.237Z,8.90
2019-03-13T08:05:32.743Z,9.10
2019-03-13T08:08:14.486Z,9.40
2019-03-13T08:11:07.253Z,9.70
2019-03-13T08:13:43.083Z,10.10
2019-03-13T08:16:30.751Z,10.40
2019-03-13T08:19:07.321Z,10.70
2019-03-13T08:22:05.720Z,11.10
2019-03-13T08:24:40.741Z,11.60
2019-03-13T08:27:28.553Z,11.90
2019-03-13T08:30:04.399Z,12.20
2019-03-13T08:32:59.292Z,12.30
2019-03-13T08:35:36.377Z,12.30
2019-03-13T08:38:17.856Z,12.40
2019-03-13T08:41:11.034Z,12.30
2019-03-13T08:43:47.541Z,12.30
2019-03-13T08:46:28.281Z,12.10
2019-03-13T08:49:09.324Z,12.00
2019-03-13T08:51:46.240Z,11.90
2019-03-13T08:54:23.487Z,11.80
2019-03-13T08:57:16.755Z,11.60
2019-03-13T09:00:03.747Z,11.50
2019-03-13T09:02:39.573Z,11.50
2019-03-13T09:05:26.039Z,11.50
2019-03-13T09:08:18.034Z,11.60
2019-03-13T09:11:05.889Z,11.70
2019-03-13T09:13:44.240Z,11.80
2019-03-13T09:16:31.498Z,11.90
2019-03-13T09:19:20.321Z,12.10
2019-03-13T09:21:59.552Z,12.10
2019-03-13T09:24:34.208Z,12.10
2019-03-13T09:27:19.900Z,11.90
2019-03-13T09:30:04.284Z,11.70
2019-03-13T09:32:45.398Z,11.60
2019-03-13T09:35:33.445Z,11.40
2019-03-13T09:38:18.768Z,11.10
2019-03-13T09:41:04.298Z,11.00
2019-03-13T09:43:38.211Z,10.80
2019-03-13T09:46:37.165Z,10.70
2019-03-13T09:49:36.488Z,10.60
2019-03-13T09:52:14.515Z,10.30
2019-03-13T09:55:04.731Z,10.20
2019-03-13T09:58:01.126Z,10.00
2019-03-13T10:00:48.421Z,9.90
2019-03-13T10:03:42.879Z,9.80
2019-03-13T10:06:32.887Z,9.80
2019-03-13T10:09:09.673Z,9.70
2019-03-13T10:11:45.528Z,9.60
2019-03-13T10:14:26.968Z,9.60
2019-03-13T10:17:10.486Z,9.60
2019-03-13T10:19:53.240Z,9.50
2019-03-13T10:22:42.387Z,9.50
2019-03-13T10:25:15.212Z,9.50
2019-03-13T10:27:51.336Z,9.50
2019-03-13T10:30:38.482Z,9.40
2019-03-13T10:33:15.212Z,9.40
2019-03-13T10:35:58.548Z,9.40
2019-03-13T10:38:45.699Z,9.30
2019-03-13T10:41:20.087Z,9.30
2019-03-13T10:44:10.816Z,9.30
2019-03-13T10:46:46.505Z,9.20
2019-03-13T10:49:36.184Z,9.20
2019-03-13T10:52:26.068Z,9.20
2019-03-13T10:55:06.415Z,9.10
2019-03-13T10:57:53.178Z,9.10
2019-03-13T11:00:29.432Z,9.10
2019-03-13T11:03:22.281Z,9.10
2019-03-13T11:05:59.065Z,9.10
2019-03-13T11:08:49.114Z,9.00
2019-03-13T11:11:42.425Z,8.90
2019-03-13T11:14:28.900Z,8.90
2019-03-13T11:17:03.294Z,8.90
2019-03-13T11:19:50.509Z,9.00
2019-03-13T11:22:26.775Z,9.00
2019-03-13T11:25:16.593Z,9.00
2019-03-13T11:27:52.527Z,9.00
2019-03-13T11:30:34.503Z,9.10
2019-03-13T11:33:25.039Z,9.10
2019-03-13T11:36:10.526Z,9.10
2019-03-13T11:39:15.465Z,9.10
2019-03-13T11:42:00.990Z,9.10
2019-03-13T11:44:48.815Z,9.10
2019-03-13T11:47:42.252Z,9.10
2019-03-13T11:50:22.882Z,9.20
2019-03-13T11:53:04.768Z,9.10
2019-03-13T11:55:57.756Z,9.20
2019-03-13T11:58:43.100Z,9.20
2019-03-13T12:01:20.781Z,9.20
2019-03-13T12:04:26.959Z,9.30
2019-03-13T12:07:29.002Z,9.30
2019-03-13T12:10:11.820Z,9.50
2019-03-13T12:12:49.729Z,9.50
2019-03-13T12:15:37.853Z,9.50
2019-03-13T12:18:25.060Z,9.50
2019-03-13T12:21:12.797Z,9.50
2019-03-13T12:23:55.831Z,9.50
2019-03-13T12:26:33.050Z,9.50
2019-03-13T12:29:16.028Z,9.60
2019-03-13T12:31:53.892Z,9.80
2019-03-13T12:34:41.055Z,9.70
2019-03-13T12:37:40.617Z,9.90
2019-03-13T12:40:31.295Z,9.80
2019-03-13T12:43:24.330Z,9.70
2019-03-13T12:46:23.509Z,9.70
2019-03-13T12:49:16.762Z,9.70
2019-03-13T12:51:58.127Z,9.90
2019-03-13T12:54:44.982Z,10.20
2019-03-13T12:57:29.499Z,11.00
2019-03-13T13:00:07.675Z,14.10
2019-03-13T13:03:03.974Z,16.00
2019-03-13T13:05:44.655Z,16.40
2019-03-13T13:08:21.241Z,16.40
2019-03-13T13:11:06.069Z,16.00
2019-03-13T13:13:58.784Z,16.90
2019-03-13T13:16:34.239Z,17.80
2019-03-13T13:19:01.702Z,17.10
2019-03-13T13:21:29.040Z,16.40
2019-03-13T13:23:56.666Z,15.70
2019-03-13T13:26:24.346Z,14.80
2019-03-13T13:28:51.882Z,14.40
2019-03-13T13:31:19.522Z,14.30
2019-03-13T13:33:48.097Z,14.50
2019-03-13T13:36:15.797Z,15.30
2019-03-13T13:38:43.766Z,15.50
2019-03-13T13:41:11.443Z,15.10
2019-03-13T13:43:38.951Z,14.40
2019-03-13T13:46:39.241Z,13.80
2019-03-13T13:49:07.946Z,13.30
2019-03-13T13:51:35.745Z,12.90
2019-03-13T13:54:03.640Z,12.50
2019-03-13T13:56:31.092Z,12.70
2019-03-13T13:58:59.672Z,12.90
2019-03-13T14:01:27.297Z,12.80
2019-03-13T14:03:54.860Z,12.90
2019-03-13T14:06:22.513Z,12.80
2019-03-13T14:08:50.683Z,12.60
2019-03-13T14:11:18.278Z,12.50
2019-03-13T14:13:45.614Z,12.40
2019-03-13T14:16:13.088Z,12.30
2019-03-13T14:18:40.620Z,12.90
2019-03-13T14:21:08.252Z,13.80
2019-03-13T14:23:35.858Z,14.80
2019-03-13T14:26:04.483Z,16.40
2019-03-13T14:28:32.004Z,17.30
2019-03-13T14:30:59.780Z,17.20
2019-03-13T14:33:27.188Z,17.00
2019-03-13T14:35:54.719Z,16.50
2019-03-13T14:38:23.432Z,15.90
2019-03-13T14:40:54.048Z,15.50
2019-03-13T14:43:21.459Z,15.10
2019-03-13T14:47:36.946Z,14.70
2019-03-13T14:50:29.057Z,14.40
2019-03-13T14:52:57.726Z,14.00
2019-03-13T14:55:25.254Z,13.70
2019-03-13T14:57:52.893Z,13.30
2019-03-13T15:00:20.869Z,13.00
2019-03-13T15:02:48.728Z,12.80
2019-03-13T15:05:17.257Z,12.50
2019-03-13T15:07:45.290Z,12.30
2019-03-13T15:10:13.739Z,12.10
2019-03-13T15:12:43.112Z,11.80
2019-03-13T15:15:12.973Z,11.60
2019-03-13T15:17:40.680Z,11.40
2019-03-13T15:20:12.112Z,11.30
2019-03-13T15:22:39.919Z,11.20
2019-03-13T15:25:08.292Z,11.10
2019-03-13T15:27:35.951Z,11.00
2019-03-13T15:30:06.526Z,10.90
2019-03-13T15:32:34.390Z,10.80
2019-03-13T15:35:01.909Z,10.70
2019-03-13T15:37:29.359Z,10.60
2019-03-13T15:39:56.988Z,10.40
2019-03-13T15:42:24.450Z,10.40
2019-03-13T15:44:51.798Z,10.30
2019-03-13T15:47:20.448Z,10.10
2019-03-13T15:49:47.982Z,10.00
2019-03-13T15:52:15.540Z,9.90
2019-03-13T15:54:42.896Z,9.70
2019-03-13T15:57:10.491Z,9.60
2019-03-13T15:59:38.145Z,9.40
2019-03-13T16:02:05.784Z,9.40
2019-03-13T16:04:36.466Z,9.40
2019-03-13T16:07:03.973Z,9.20
2019-03-13T16:09:32.995Z,9.10
2019-03-13T16:12:00.341Z,9.10
2019-03-13T16:14:29.264Z,8.90
2019-03-13T16:16:56.715Z,8.80
2019-03-13T16:19:24.551Z,8.60
2019-03-13T16:21:52.043Z,8.50
2019-03-13T16:24:19.499Z,8.40
2019-03-13T16:26:46.967Z,8.30
2019-03-13T16:29:14.490Z,8.30
2019-03-13T16:31:41.950Z,8.10
2019-03-13T16:34:09.679Z,8.10
2019-03-13T16:36:37.302Z,8.10
2019-03-13T16:39:05.882Z,8.10
2019-03-13T16:41:35.216Z,8.00
2019-03-13T16:44:04.478Z,7.90
2019-03-13T16:46:34.912Z,7.90
2019-03-13T16:49:03.132Z,7.90
2019-03-13T16:51:30.777Z,7.80
2019-03-13T16:53:59.767Z,7.80
2019-03-13T16:56:27.228Z,7.70
2019-03-13T16:58:54.712Z,7.70
2019-03-13T17:01:22.198Z,7.70
2019-03-13T17:03:50.876Z,7.70
2019-03-13T17:06:18.269Z,7.60
2019-03-13T17:08:46.083Z,7.60
2019-03-13T17:11:13.552Z,7.50
2019-03-13T17:13:41.495Z,7.40
2019-03-13T17:16:09.199Z,7.40
2019-03-13T17:18:36.856Z,7.40
2019-03-13T17:21:05.413Z,7.30
2019-03-13T17:23:32.963Z,7.20
2019-03-13T17:26:00.397Z,7.20
2019-03-13T17:28:28.493Z,7.10
2019-03-13T17:30:56.678Z,7.10
2019-03-13T17:33:24.858Z,7.00
2019-03-13T17:35:52.683Z,7.00
2019-03-13T17:38:58.306Z,6.90
2019-03-13T17:41:25.987Z,6.80
2019-03-13T17:43:56.687Z,6.80
2019-03-13T17:46:25.801Z,6.80
2019-03-13T17:48:54.385Z,6.80
2019-03-13T17:51:22.605Z,6.70
2019-03-13T17:53:52.711Z,6.70
2019-03-13T17:56:20.648Z,6.70
2019-03-13T17:58:49.568Z,6.60
2019-03-13T18:01:18.512Z,6.60
2019-03-13T18:03:46.049Z,6.60
2019-03-13T18:06:13.660Z,6.60
2019-03-13T18:08:42.114Z,6.60
2019-03-13T18:11:10.776Z,6.50
2019-03-13T18:13:38.982Z,6.60
2019-03-13T18:16:08.541Z,6.50
2019-03-13T18:18:36.572Z,6.50
2019-03-13T18:21:04.167Z,6.40
2019-03-13T18:23:31.689Z,6.40
2019-03-13T18:25:59.627Z,6.40
2019-03-13T18:28:27.868Z,6.40
2019-03-13T18:30:55.402Z,6.40
2019-03-13T18:33:23.229Z,6.30
2019-03-13T18:35:51.178Z,6.30
2019-03-13T18:38:18.749Z,6.20
2019-03-13T18:40:46.443Z,6.20
2019-03-13T18:43:13.986Z,6.10
2019-03-13T18:45:41.709Z,6.00
2019-03-13T18:48:09.318Z,5.90
2019-03-13T18:50:36.852Z,5.90
2019-03-13T18:53:04.597Z,5.80
2019-03-13T18:55:33.105Z,5.70
2019-03-13T18:58:00.664Z,5.70
2019-03-13T19:00:29.723Z,5.60
2019-03-13T19:02:58.138Z,5.50
2019-03-13T19:05:26.815Z,5.40
2019-03-13T19:07:55.504Z,5.30
2019-03-13T19:10:24.618Z,5.20
2019-03-13T19:12:58.154Z,5.10
2019-03-13T19:15:27.130Z,5.00
2019-03-13T19:18:05.406Z,4.90
2019-03-13T19:20:36.296Z,4.90
2019-03-13T19:23:08.054Z,4.80
2019-03-13T19:25:39.751Z,4.80
2019-03-13T19:28:08.412Z,4.80
2019-03-13T19:30:37.892Z,4.70
2019-03-13T19:33:06.586Z,4.70
2019-03-13T19:35:34.469Z,4.70
2019-03-13T19:38:05.152Z,4.60
2019-03-13T19:40:31.732Z,4.60
2019-03-13T19:42:59.534Z,4.60
2019-03-13T19:45:31.120Z,4.60
2019-03-13T19:48:01.140Z,4.60
2019-03-13T19:50:28.474Z,4.60
2019-03-13T19:52:56.327Z,4.60
2019-03-13T19:55:23.703Z,4.60
2019-03-13T19:57:51.634Z,4.60
2019-03-13T20:00:20.671Z,4.60
2019-03-13T20:02:59.416Z,4.60
2019-03-13T20:05:21.348Z,4.60
2019-03-13T20:07:50.499Z,4.70
2019-03-13T20:10:25.798Z,4.70
2019-03-13T20:12:55.833Z,4.80
2019-03-13T20:15:26.483Z,4.80
2019-03-13T20:18:00.057Z,4.80
2019-03-13T20:20:29.235Z,4.80
2019-03-13T20:23:04.323Z,4.80
2019-03-13T20:25:33.203Z,4.90
2019-03-13T20:28:01.639Z,4.90
2019-03-13T20:30:31.250Z,4.90
2019-03-13T20:33:00.552Z,4.90
2019-03-13T20:35:28.848Z,4.90
2019-03-13T20:37:57.825Z,4.90
2019-03-13T20:40:26.524Z,4.90
2019-03-13T20:42:55.932Z,4.90
2019-03-13T20:45:24.169Z,4.90
2019-03-13T20:47:53.197Z,4.90
2019-03-13T20:50:35.207Z,4.90
2019-03-13T20:52:51.452Z,4.80
2019-03-13T20:55:19.845Z,4.90
2019-03-13T20:57:47.978Z,5.00
2019-03-13T21:00:19.695Z,4.90
2019-03-13T21:02:47.469Z,5.00
2019-03-13T21:05:15.094Z,5.00
2019-03-13T21:07:42.859Z,5.10
2019-03-13T21:10:10.691Z,5.20
2019-03-13T21:12:38.668Z,5.20
2019-03-13T21:15:07.708Z,5.30
2019-03-13T21:17:36.509Z,5.40
2019-03-13T21:20:05.652Z,5.50
2019-03-13T21:22:33.313Z,5.60
2019-03-13T21:25:00.717Z,5.60
2019-03-13T21:27:28.334Z,5.70
2019-03-13T21:29:56.080Z,5.70
2019-03-13T21:32:28.859Z,5.80
2019-03-13T21:34:56.102Z,5.80
2019-03-13T21:37:23.661Z,5.90
2019-03-13T21:39:51.812Z,5.90
2019-03-13T21:42:19.323Z,6.00
2019-03-13T21:44:46.691Z,6.10
2019-03-13T21:47:14.271Z,6.10
2019-03-13T21:49:41.972Z,6.10
2019-03-13T21:52:09.493Z,6.20
2019-03-13T21:54:37.831Z,6.20
2019-03-13T21:57:05.786Z,6.20
2019-03-13T21:59:34.063Z,6.20
2019-03-13T22:02:02.304Z,6.20
2019-03-13T22:04:29.788Z,6.20
2019-03-13T22:06:57.648Z,6.20
2019-03-13T22:09:25.240Z,6.10
2019-03-13T22:11:52.624Z,6.10
2019-03-13T22:14:20.182Z,6.10
2019-03-13T22:16:47.609Z,6.20
2019-03-13T22:19:15.273Z,6.10
2019-03-13T22:21:42.821Z,6.20
2019-03-13T22:24:10.202Z,6.10
2019-03-13T22:26:37.666Z,6.10
2019-03-13T22:29:06.051Z,6.10
2019-03-13T22:31:33.807Z,6.10
2019-03-13T22:34:02.567Z,6.00
2019-03-13T22:36:29.929Z,6.00
2019-03-13T22:38:57.515Z,6.00
2019-03-13T22:41:25.518Z,6.00
2019-03-13T22:43:53.050Z,6.00
2019-03-13T22:46:20.504Z,6.00
2019-03-13T22:48:57.707Z,6.00
2019-03-13T22:51:17.313Z,6.00
2019-03-13T22:53:44.976Z,6.00
2019-03-13T22:56:15.371Z,6.00
2019-03-13T22:58:44.907Z,6.00
2019-03-13T23:01:15.019Z,6.00
2019-03-13T23:03:44.484Z,5.90
2019-03-13T23:06:11.892Z,5.90
2019-03-13T23:08:39.526Z,5.90
2019-03-13T23:11:06.984Z,5.90
2019-03-13T23:13:34.502Z,5.80
2019-03-13T23:16:02.099Z,5.80
2019-03-13T23:18:29.552Z,5.80
2019-03-13T23:20:57.145Z,5.70
2019-03-13T23:23:24.550Z,5.60
2019-03-13T23:25:52.167Z,5.60
2019-03-13T23:28:19.687Z,5.50
2019-03-13T23:30:49.845Z,5.50
2019-03-13T23:33:17.361Z,5.40
2019-03-13T23:35:44.715Z,5.30
2019-03-13T23:38:12.177Z,5.30
2019-03-13T23:40:39.721Z,5.30
2019-03-13T23:43:08.141Z,5.10
2019-03-13T23:45:35.664Z,5.10
2019-03-13T23:48:03.279Z,5.00
2019-03-13T23:50:30.836Z,5.00
2019-03-13T23:52:58.236Z,4.90
2019-03-13T23:55:25.808Z,4.80
2019-03-13T23:57:53.134Z,4.80
